Leesburg, VA (20175)

6:28 PM EDT on September 29, 2016 (GMT -0400)
Emerald Park Estates | | Change Station

Elev 424 ft 39.08 °N, 77.59 °W | Updated 3 seconds ago

Rain
Rain
64.3 °F
Feels Like 64.3 °F
N
6.0
Wind Variable Wind from ENE
Gusts 6.0 mph

Today
High -- | Low -- °F
--% Chance of Precip.
Yesterday
High -- | Low -- °F
Precip. -- in
Pressure 30.16 in
Visibility 3.0 miles
Clouds Overcast 700 ft
Dew Point 64 °F
Humidity 99%
Rainfall 1.15 in
Snow Depth Not available.
7:05 AM 6:55 PM
Waning Crescent, 1% visible
METAR KJYO 292215Z AUTO 09009G16KT 050V160 3SM BR OVC007 19/19 A3016 RMK AO2
Pressure 30.16 in
Visibility 3.0 miles
Clouds Overcast 700 ft
Dew Point 64 °F
Humidity 99%
Rainfall 1.15 in
Snow Depth Not available.
7:05 AM 6:55 PM
Waning Crescent, 1% visible
METAR KJYO 292215Z AUTO 09009G16KT 050V160 3SM BR OVC007 19/19 A3016 RMK AO2

10-Day Weather Forecast

Almanac

Astronomy

Sep. 29, 2016 Rise Set
Actual Time
Civil Twilight
Nautical Twilight
Astronomical Twilight
Moon
Length of Visible Light
Length of Day
Tomorrow will be .
, % of the Moon is Illuminated

Today's Extremes

State Highs State Lows

Community

WunderPhotos

Upload Photos

1,942,591 photos uploaded!

WunderBlog® & News

Nearby

Air Quality

  Air Quality AQ Index Pollutant
Not available.

Snow Depth

Station Depth Elevation

Earthquake Activity

City Distance Mag. Time & Date
Minimum magnitude displayed is 2.5.

Coastal Water Temperatures

Place Temperature

Stations

Nearby Weather Stations

Station Location Temp. Windchill Dew Point Humidity Wind Precip. Elev Updated Type
                   

Watches & Warnings

Flood Watch / Flood Statement
Issued: 6:17 PM EDT Sep. 29, 2016 – National Weather Service

... Flash Flood Watch is cancelled...

The Flash Flood Watch for portions of Maryland... the District of
Columbia... Virginia and Panhandle West Virginia has been
cancelled. Additional rainfall overnight is expected to remain
below amounts needed to cause flash flooding.